Terminal Aerodrome Forecast
Issued by NWS Midland/Odessa, TX

Current Version | Previous Version | Text Only | Print | Product List | Glossary On
Versions: 1 2 3 4 5 6 7 8 9 10 11 12 13
000
FTUS44 KMAF 041100
TAFMAF
TAF
KMAF 041125Z 0412/0512 15010KT P6SM BKN120
      TEMPO 0413/0417 OVC020
     FM041700 15018G28KT P6SM OVC040
     FM050000 14020G30KT P6SM -TSRA OVC040CB=

USA.gov is the U.S. government's official web portal to all federal, state and local government web resources and services.